Terminal Aerodrome Forecast
Issued by NWS

Home | Current Version | Previous Version | Text Only | Print | Product List | Glossary On
Versions: 1 2 3 4 5 6 7 8 9 10 11 12 13 14 15 16 17 18 19 20 21 22
000
FTUS46 KLOX 022326
TAFOXR
TAF
KOXR 022326Z 0300/0324 25012KT P6SM SCT250
     FM030200 27008KT P6SM SKC
     FM030500 VRB03KT P6SM SKC
     FM031000 VRB03KT P6SM BKN010
     FM031700 26007KT P6SM SCT014
     FM032100 25013KT P6SM SKC=

USA.gov is the U.S. government's official web portal to all federal, state and local government web resources and services.